Time;durP1;ratioP1;P1;durP2;ratioP2;P2;SDS_P1;SDS_P2;PMS_P1;PMS_P2;Temp;Humidity;BMP_temperature;BMP_pressure;BME280_temperature;BME280_humidity;BME280_pressure;Samples;Min_cycle;Max_cycle;Signal;HPM_P1;HPM_P2
2022/06/05 00:02:09;;;;;;;25.30;15.90;;;;;;;15.23;78.34;100744.77;105763;1271;25448;-58
2022/06/05 00:04:51;;;;;;;28.80;17.00;;;;;;;15.20;78.37;100749.19;105665;1271;24296;-55
2022/06/05 00:07:31;;;;;;;24.80;16.20;;;;;;;15.18;78.30;100751.68;106088;1270;25264;-56
2022/06/05 00:10:13;;;;;;;25.20;16.50;;;;;;;15.15;78.18;100744.33;105916;1271;24433;-57
2022/06/05 00:12:54;;;;;;;24.10;15.30;;;;;;;15.12;78.12;100740.59;106142;1271;23185;-58
2022/06/05 00:15:27;;;;;;;23.40;14.70;;;;;;;15.09;77.98;100743.21;105922;1270;22541;-56
2022/06/05 00:17:58;;;;;;;23.20;14.90;;;;;;;15.07;77.96;100740.23;105775;1271;25257;-60
2022/06/05 00:20:31;;;;;;;24.10;14.70;;;;;;;15.04;78.05;100739.23;105694;1271;22608;-56
2022/06/05 00:23:07;;;;;;;21.30;13.00;;;;;;;15.00;77.86;100736.90;105716;1271;22684;-58
2022/06/05 00:25:48;;;;;;;21.10;13.40;;;;;;;14.96;77.98;100732.92;105994;1271;22550;-58
2022/06/05 00:28:35;;;;;;;21.20;12.80;;;;;;;14.89;77.99;100739.67;105947;1270;22684;-57
2022/06/05 00:31:16;;;;;;;18.70;11.30;;;;;;;14.88;77.99;100737.70;105890;1271;22528;-58
2022/06/05 00:33:47;;;;;;;19.70;11.40;;;;;;;14.87;78.06;100733.50;106054;1271;25416;-58
2022/06/05 00:36:32;;;;;;;18.90;10.80;;;;;;;14.85;77.90;100731.75;105881;1271;22478;-57
2022/06/05 00:39:09;;;;;;;17.20;9.50;;;;;;;14.84;78.16;100735.77;105861;1272;22532;-58
2022/06/05 00:41:53;;;;;;;16.50;9.00;;;;;;;14.82;78.32;100739.08;105665;1271;25269;-55
2022/06/05 00:44:29;;;;;;;16.90;9.50;;;;;;;14.82;78.26;100733.31;105743;1271;22573;-57
2022/06/05 00:47:01;;;;;;;17.90;9.70;;;;;;;14.82;78.25;100729.17;105958;1271;22555;-54
2022/06/05 00:49:38;;;;;;;15.30;8.60;;;;;;;14.80;78.00;100724.80;105690;1271;22577;-58
2022/06/05 00:52:14;;;;;;;17.30;10.30;;;;;;;14.78;77.78;100727.64;105797;1270;22584;-55
2022/06/05 00:54:45;;;;;;;16.50;8.60;;;;;;;14.75;78.09;100724.92;105808;1270;22558;-58
2022/06/05 00:57:18;;;;;;;13.80;7.70;;;;;;;14.71;77.90;100723.08;105941;1270;22577;-57
2022/06/05 00:59:51;;;;;;;18.90;8.60;;;;;;;14.69;77.82;100723.31;105688;1271;25312;-57
2022/06/05 01:02:24;;;;;;;13.70;7.90;;;;;;;14.67;77.81;100725.64;105739;1271;22548;-56
2022/06/05 01:04:56;;;;;;;17.00;8.20;;;;;;;14.60;77.93;100722.66;105716;1271;25431;-57
2022/06/05 01:07:27;;;;;;;16.40;8.60;;;;;;;14.54;77.71;100720.30;105891;1270;22621;-55
2022/06/05 01:09:59;;;;;;;13.80;8.60;;;;;;;14.49;77.88;100726.17;105778;1272;22546;-56
2022/06/05 01:12:40;;;;;;;16.70;9.00;;;;;;;14.42;77.73;100724.81;106427;1270;27680;-56
2022/06/05 01:15:21;;;;;;;12.40;7.70;;;;;;;14.37;77.82;100723.54;105957;1271;26491;-56
2022/06/05 01:18:02;;;;;;;13.70;8.30;;;;;;;14.31;77.87;100724.69;105747;1272;25486;-55
2022/06/05 01:20:48;;;;;;;14.90;8.00;;;;;;;14.28;77.74;100725.15;105915;1270;26346;-56
2022/06/05 01:23:44;;;;;;;18.70;8.80;;;;;;;14.23;77.75;100725.80;105897;1272;25378;-56
2022/06/05 01:26:26;;;;;;;14.50;8.00;;;;;;;14.18;77.84;100727.98;105888;1272;24567;-54
2022/06/05 01:29:02;;;;;;;16.30;8.80;;;;;;;14.14;77.82;100728.39;105803;1272;25263;-53
2022/06/05 01:31:38;;;;;;;14.50;8.40;;;;;;;14.10;77.73;100719.49;105937;1270;22574;-56
2022/06/05 01:34:20;;;;;;;17.10;8.90;;;;;;;14.05;77.98;100713.69;105714;1270;22607;-56
2022/06/05 01:36:58;;;;;;;14.70;8.10;;;;;;;14.01;77.89;100718.17;105865;1272;22822;-56
2022/06/05 01:39:35;;;;;;;17.30;8.50;;;;;;;13.99;77.96;100718.36;105866;1272;22528;-55
2022/06/05 01:42:13;;;;;;;16.40;8.50;;;;;;;13.95;77.96;100718.02;105719;1272;22556;-54
2022/06/05 01:44:49;;;;;;;17.30;9.70;;;;;;;13.89;77.88;100720.37;105815;1272;22560;-56
2022/06/05 01:47:25;;;;;;;17.00;8.80;;;;;;;13.82;78.09;100717.21;105981;1272;24354;-54
2022/06/05 01:50:00;;;;;;;16.50;8.90;;;;;;;13.78;78.04;100714.57;105691;1272;22529;-55
2022/06/05 01:52:35;;;;;;;18.20;10.10;;;;;;;13.74;78.04;100714.46;105830;1270;25239;-55
2022/06/05 01:55:12;;;;;;;16.50;9.00;;;;;;;13.69;78.04;100716.33;105912;1270;24375;-58
2022/06/05 01:57:44;;;;;;;14.30;8.40;;;;;;;13.62;78.12;100716.33;105772;1272;22547;-57
2022/06/05 02:00:19;;;;;;;18.80;10.20;;;;;;;13.57;78.11;100716.45;105766;1270;22521;-58
2022/06/05 02:02:58;;;;;;;15.10;8.70;;;;;;;13.52;78.14;100719.69;105667;1272;22499;-57
2022/06/05 02:05:45;;;;;;;15.60;8.80;;;;;;;13.48;78.21;100714.95;105619;1272;25309;-55
2022/06/05 02:08:23;;;;;;;19.30;10.00;;;;;;;13.43;77.94;100723.94;105602;1272;22488;-56
2022/06/05 02:11:00;;;;;;;16.60;9.20;;;;;;;13.35;78.04;100728.58;105838;1270;22531;-55
2022/06/05 02:13:32;;;;;;;18.90;9.30;;;;;;;13.30;78.08;100729.15;105743;1271;22526;-56
2022/06/05 02:16:03;;;;;;;15.10;8.80;;;;;;;13.25;78.32;100724.79;105996;1271;22548;-57
2022/06/05 02:18:35;;;;;;;16.90;9.20;;;;;;;13.19;78.32;100725.35;105912;1270;26534;-55
2022/06/05 02:21:08;;;;;;;16.80;9.10;;;;;;;13.17;78.22;100723.95;105757;1271;24319;-55
2022/06/05 02:23:41;;;;;;;16.10;9.40;;;;;;;13.14;78.18;100723.95;106033;1272;24249;-58
2022/06/05 02:26:13;;;;;;;17.00;9.40;;;;;;;13.10;78.45;100723.93;105613;1272;22776;-54
2022/06/05 02:28:47;;;;;;;19.30;9.10;;;;;;;13.06;78.16;100723.77;105725;1272;24699;-54
2022/06/05 02:31:33;;;;;;;15.50;8.40;;;;;;;13.00;78.24;100722.67;105765;1270;22557;-58
2022/06/05 02:34:16;;;;;;;15.70;8.60;;;;;;;12.94;78.42;100716.56;105823;1271;24282;-53
2022/06/05 02:37:01;;;;;;;15.90;8.70;;;;;;;12.91;78.32;100717.17;105686;1270;22528;-57
2022/06/05 02:39:43;;;;;;;16.00;8.50;;;;;;;12.86;78.38;100722.48;105664;1270;24328;-54
2022/06/05 02:42:28;;;;;;;15.70;8.40;;;;;;;12.82;78.50;100720.38;105783;1271;22534;-56
2022/06/05 02:45:09;;;;;;;16.90;8.70;;;;;;;12.79;78.35;100722.31;105753;1272;22556;-57
2022/06/05 02:47:50;;;;;;;13.20;7.30;;;;;;;12.78;78.92;100724.16;105928;1272;25317;-56
2022/06/05 02:50:27;;;;;;;14.80;8.40;;;;;;;12.79;79.12;100724.89;106047;1271;22528;-58
2022/06/05 02:53:04;;;;;;;15.40;8.40;;;;;;;12.77;79.19;100722.03;105821;1270;22549;-56
2022/06/05 02:55:37;;;;;;;13.10;6.90;;;;;;;12.74;79.12;100724.46;105754;1272;22466;-54
2022/06/05 02:58:11;;;;;;;13.30;7.60;;;;;;;12.69;78.91;100724.83;105684;1270;22523;-55
2022/06/05 03:03:27;;;;;;;13.90;7.80;;;;;;;12.63;78.90;100724.10;105655;1272;23328;-55
2022/06/05 03:03:36;;;;;;;13.20;7.00;;;;;;;12.59;79.12;100728.46;105625;1270;22541;-54
2022/06/05 03:06:07;;;;;;;13.60;8.40;;;;;;;12.58;79.24;100725.14;105762;1271;27308;-58
2022/06/05 03:08:39;;;;;;;13.90;7.70;;;;;;;12.57;79.31;100729.08;105752;1272;22659;-55
2022/06/05 03:11:10;;;;;;;13.90;7.70;;;;;;;12.56;79.33;100731.21;105764;1272;25430;-55
2022/06/05 03:13:41;;;;;;;13.90;7.60;;;;;;;12.55;79.60;100731.95;105788;1270;22530;-56
2022/06/05 03:16:13;;;;;;;15.20;7.60;;;;;;;12.53;79.59;100735.27;105866;1270;22541;-55
2022/06/05 03:18:46;;;;;;;13.80;7.30;;;;;;;12.52;79.44;100741.16;105898;1272;25548;-55
2022/06/05 03:21:19;;;;;;;17.30;8.40;;;;;;;12.51;79.47;100743.95;105842;1272;23442;-59
2022/06/05 03:23:51;;;;;;;16.40;8.20;;;;;;;12.50;79.57;100753.53;105842;1272;22553;-57
2022/06/05 03:26:23;;;;;;;15.10;7.60;;;;;;;12.48;79.90;100759.11;105703;1272;25646;-55
2022/06/05 03:28:55;;;;;;;9.70;4.60;;;;;;;12.47;80.18;100770.30;105761;1272;26374;-54
2022/06/05 03:31:26;;;;;;;17.70;8.60;;;;;;;12.40;80.40;100771.10;105654;1270;22529;-55
2022/06/05 03:33:58;;;;;;;16.50;7.50;;;;;;;12.37;80.96;100763.66;105822;1270;22748;-54
2022/06/05 03:36:30;;;;;;;17.20;10.00;;;;;;;12.36;80.96;100775.77;105958;1270;22596;-56
2022/06/05 03:39:03;;;;;;;17.50;9.50;;;;;;;12.36;81.86;100781.11;105762;1272;25320;-55
2022/06/05 03:41:35;;;;;;;18.10;8.80;;;;;;;12.33;81.91;100784.77;105829;1272;22561;-56
2022/06/05 03:44:07;;;;;;;15.30;8.80;;;;;;;12.32;81.87;100787.96;105790;1272;25341;-57
2022/06/05 03:46:40;;;;;;;16.80;9.90;;;;;;;12.32;82.12;100793.42;105681;1270;24384;-57
2022/06/05 03:49:14;;;;;;;17.10;9.10;;;;;;;12.31;82.11;100785.89;105740;1270;22551;-55
2022/06/05 03:51:48;;;;;;;18.10;10.80;;;;;;;12.28;82.10;100786.04;105817;1272;25328;-53
2022/06/05 03:54:19;;;;;;;19.00;10.50;;;;;;;12.31;82.61;100788.69;105732;1270;22529;-58
2022/06/05 03:56:51;;;;;;;19.50;11.10;;;;;;;12.34;82.80;100794.02;105722;1272;25247;-56
2022/06/05 03:59:23;;;;;;;21.90;13.20;;;;;;;12.37;83.57;100790.81;105749;1271;22544;-57
2022/06/05 04:01:55;;;;;;;19.10;12.40;;;;;;;12.46;84.10;100788.90;105719;1271;22556;-55
2022/06/05 04:04:26;;;;;;;21.00;12.30;;;;;;;12.56;84.22;100785.90;105665;1272;22551;-55
2022/06/05 04:06:58;;;;;;;24.50;13.40;;;;;;;12.65;83.97;100786.80;105623;1272;22533;-56
2022/06/05 04:09:30;;;;;;;22.00;12.70;;;;;;;12.74;84.27;100790.79;105926;1271;25325;-54
2022/06/05 04:12:02;;;;;;;23.30;13.70;;;;;;;12.83;84.35;100788.15;105643;1271;24310;-54
2022/06/05 04:14:34;;;;;;;23.00;13.00;;;;;;;12.93;84.88;100787.88;106469;1260;25382;-50
2022/06/05 04:17:06;;;;;;;19.50;12.00;;;;;;;13.02;85.08;100790.80;106104;1270;24288;-49
2022/06/05 04:19:38;;;;;;;25.60;13.70;;;;;;;13.11;85.00;100790.92;106525;1270;22607;-49
2022/06/05 04:22:09;;;;;;;21.00;14.00;;;;;;;13.19;85.09;100796.71;106084;1270;22532;-50
2022/06/05 04:24:41;;;;;;;22.00;13.80;;;;;;;13.28;84.97;100801.86;107215;1270;22585;-50
2022/06/05 04:27:14;;;;;;;22.50;13.20;;;;;;;13.36;85.05;100805.11;106049;1270;25519;-50
2022/06/05 04:29:45;;;;;;;24.40;13.50;;;;;;;13.45;85.12;100805.98;109799;1270;23039;-51
2022/06/05 04:32:16;;;;;;;21.70;12.90;;;;;;;13.55;85.01;100807.52;109844;1270;22398;-52
2022/06/05 04:34:50;;;;;;;25.50;13.00;;;;;;;13.65;85.23;100799.82;107596;1270;22528;-50
2022/06/05 04:37:22;;;;;;;24.70;11.80;;;;;;;13.76;85.06;100799.17;105961;1270;24300;-52
2022/06/05 04:39:53;;;;;;;21.90;12.60;;;;;;;13.86;85.07;100797.13;106019;1270;22550;-49
2022/06/05 04:42:26;;;;;;;20.10;10.40;;;;;;;13.96;84.99;100799.52;106044;1271;22531;-52
2022/06/05 04:44:57;;;;;;;19.00;11.60;;;;;;;14.06;84.91;100798.43;106074;1270;24319;-50
2022/06/05 04:47:30;;;;;;;21.10;11.40;;;;;;;14.15;84.76;100795.89;106019;1270;22545;-50
2022/06/05 04:50:01;;;;;;;19.00;10.60;;;;;;;14.24;84.72;100796.38;105940;1270;23178;-50
2022/06/05 04:52:33;;;;;;;21.40;10.90;;;;;;;14.34;84.43;100795.98;105910;1270;25304;-50
2022/06/05 04:55:05;;;;;;;19.90;9.40;;;;;;;14.43;84.62;100797.92;106105;1270;25390;-49
2022/06/05 04:57:38;;;;;;;17.80;9.70;;;;;;;14.53;84.46;100801.52;106017;1270;22732;-54
2022/06/05 05:00:12;;;;;;;18.70;9.10;;;;;;;14.63;84.19;100805.00;106101;1270;22661;-54
2022/06/05 05:02:43;;;;;;;18.40;8.70;;;;;;;14.75;84.24;100809.48;105905;1270;22525;-50
2022/06/05 05:05:15;;;;;;;13.60;7.70;;;;;;;14.86;84.49;100805.83;106103;1270;22544;-53
2022/06/05 05:07:46;;;;;;;14.70;8.10;;;;;;;15.03;84.28;100804.11;106030;1270;25390;-51
2022/06/05 05:10:18;;;;;;;13.50;6.60;;;;;;;15.17;84.28;100805.47;105858;1270;22546;-50
2022/06/05 05:12:49;;;;;;;12.80;5.70;;;;;;;15.29;83.44;100806.29;105754;1270;22529;-49
2022/06/05 05:15:21;;;;;;;15.80;6.20;;;;;;;15.44;83.15;100802.25;105807;1270;24243;-48
2022/06/05 05:17:53;;;;;;;10.70;5.20;;;;;;;15.56;82.16;100802.90;105948;1270;25236;-49
2022/06/05 05:20:25;;;;;;;12.80;6.30;;;;;;;15.63;82.23;100801.48;105988;1270;25344;-50
2022/06/05 05:22:56;;;;;;;12.30;6.00;;;;;;;15.73;82.14;100801.65;106111;1271;24368;-50
2022/06/05 05:25:27;;;;;;;12.60;6.50;;;;;;;15.84;82.13;100800.09;105964;1270;24368;-49
2022/06/05 05:27:59;;;;;;;13.90;6.40;;;;;;;15.92;81.53;100796.86;106126;1270;24252;-52
2022/06/05 05:30:30;;;;;;;10.90;5.60;;;;;;;16.05;82.11;100791.20;106069;1270;23016;-50
2022/06/05 05:33:02;;;;;;;12.30;5.40;;;;;;;16.18;81.08;100789.02;106041;1270;24284;-53
2022/06/05 05:35:33;;;;;;;11.30;5.10;;;;;;;16.26;80.66;100788.24;106025;1270;22544;-50
2022/06/05 05:38:05;;;;;;;11.40;4.70;;;;;;;16.32;80.48;100787.80;106229;1270;24594;-50
2022/06/05 05:43:26;;;;;;;11.80;5.70;;;;;;;16.57;80.57;100786.55;106464;1270;25219;-49
2022/06/05 05:45:57;;;;;;;8.60;4.20;;;;;;;16.67;79.93;100788.73;106055;1270;26234;-50
2022/06/05 05:48:30;;;;;;;10.50;4.30;;;;;;;16.74;78.96;100793.17;106151;1270;22605;-50
2022/06/05 05:51:01;;;;;;;10.30;4.80;;;;;;;16.80;78.76;100792.30;106106;1270;24240;-49
2022/06/05 05:53:34;;;;;;;10.10;4.60;;;;;;;16.88;78.90;100787.86;106153;1270;22525;-50
2022/06/05 05:56:12;;;;;;;9.80;4.10;;;;;;;16.96;79.02;100783.27;106037;1270;24347;-50
2022/06/05 05:58:44;;;;;;;9.30;3.50;;;;;;;17.14;79.15;100780.15;106070;1270;22516;-49
2022/06/05 06:01:15;;;;;;;7.40;2.90;;;;;;;17.31;78.26;100775.70;105806;1270;22691;-50
2022/06/05 06:03:47;;;;;;;9.90;3.40;;;;;;;17.41;77.04;100769.48;106059;1270;25393;-52
2022/06/05 06:06:20;;;;;;;9.00;3.90;;;;;;;17.43;76.08;100764.98;105920;1270;22746;-49
2022/06/05 06:08:51;;;;;;;11.10;4.40;;;;;;;17.45;75.39;100762.86;105932;1270;22534;-49
2022/06/05 06:11:24;;;;;;;8.80;4.10;;;;;;;17.47;75.79;100761.95;105789;1270;25515;-51
2022/06/05 06:13:56;;;;;;;10.20;4.70;;;;;;;17.56;75.67;100763.50;106039;1270;25615;-53
2022/06/05 06:16:28;;;;;;;9.80;4.70;;;;;;;17.65;74.99;100766.78;105963;1270;29020;-51
2022/06/05 06:19:00;;;;;;;11.50;5.80;;;;;;;17.74;75.27;100762.40;105999;1270;22697;-53
2022/06/05 06:21:34;;;;;;;11.60;5.30;;;;;;;17.84;75.02;100760.27;106204;1270;26238;-50
2022/06/05 06:24:06;;;;;;;9.30;4.00;;;;;;;17.95;75.00;100753.31;106001;1271;23203;-50
2022/06/05 06:26:38;;;;;;;11.90;4.40;;;;;;;18.03;73.50;100752.72;106031;1270;22560;-51
2022/06/05 06:29:10;;;;;;;10.40;4.60;;;;;;;18.06;73.24;100752.52;105643;1270;24225;-51
2022/06/05 06:31:43;;;;;;;10.70;5.50;;;;;;;18.09;73.79;100754.19;105904;1270;22607;-52
2022/06/05 06:34:14;;;;;;;8.80;4.50;;;;;;;18.20;73.22;100754.55;105984;1268;25415;-53
2022/06/05 06:36:46;;;;;;;9.30;3.70;;;;;;;18.25;72.97;100751.92;105973;1270;22687;-49
2022/06/05 06:39:18;;;;;;;11.70;4.50;;;;;;;18.34;73.30;100758.00;106060;1270;24277;-51
2022/06/05 06:41:51;;;;;;;10.70;4.40;;;;;;;18.45;72.78;100755.56;105973;1271;22713;-53
2022/06/05 06:44:23;;;;;;;9.00;3.80;;;;;;;18.55;72.57;100754.78;106165;1270;22547;-54
2022/06/05 06:46:55;;;;;;;8.50;3.40;;;;;;;18.64;73.12;100756.34;105942;1270;22545;-52
2022/06/05 06:49:27;;;;;;;14.00;5.90;;;;;;;18.79;72.77;100760.52;105655;1271;415621;-52
2022/06/05 06:51:58;;;;;;;10.60;4.80;;;;;;;18.92;71.86;100759.34;106243;1270;22542;-55
2022/06/05 06:54:31;;;;;;;9.60;3.80;;;;;;;19.00;71.13;100758.98;105931;1270;25343;-53
2022/06/05 06:57:03;;;;;;;10.80;4.50;;;;;;;19.07;70.88;100767.33;105690;1270;22579;-51
2022/06/05 06:59:35;;;;;;;9.30;3.70;;;;;;;19.17;70.63;100764.84;105974;1270;25314;-49
2022/06/05 07:02:07;;;;;;;12.40;4.20;;;;;;;19.24;70.72;100760.88;106065;1271;24612;-53
2022/06/05 07:04:39;;;;;;;8.50;3.80;;;;;;;19.33;70.62;100758.44;105965;1270;22618;-49
2022/06/05 07:07:11;;;;;;;11.60;4.10;;;;;;;19.43;69.98;100753.21;105899;1270;24306;-53
2022/06/05 07:09:43;;;;;;;10.90;4.10;;;;;;;19.51;69.96;100752.42;106071;1270;24758;-50
2022/06/05 07:12:17;;;;;;;10.00;4.30;;;;;;;19.60;69.41;100752.91;105862;1270;22605;-54
2022/06/05 07:14:51;;;;;;;9.80;4.10;;;;;;;19.70;69.20;100759.26;105922;1270;25212;-52
2022/06/05 07:17:24;;;;;;;10.50;4.40;;;;;;;19.77;68.77;100763.51;105945;1270;23244;-53
2022/06/05 07:19:55;;;;;;;11.40;5.30;;;;;;;19.81;68.27;100764.13;105900;1271;22550;-58
2022/06/05 07:22:28;;;;;;;8.80;4.70;;;;;;;19.82;67.70;100767.48;108487;1270;24254;-53
2022/06/05 07:25:01;;;;;;;11.10;4.80;;;;;;;19.82;67.57;100763.80;106097;1268;22541;-50
2022/06/05 07:27:33;;;;;;;10.10;4.00;;;;;;;19.79;66.76;100762.03;105678;1270;156977;-49
2022/06/05 07:30:08;;;;;;;8.90;4.00;;;;;;;19.75;66.87;100756.83;106111;1271;22594;-55
2022/06/05 07:32:41;;;;;;;9.60;4.30;;;;;;;19.79;67.01;100750.04;106134;1270;22543;-53
2022/06/05 07:35:14;;;;;;;9.60;4.30;;;;;;;19.86;66.49;100752.64;105983;1270;25633;-51
2022/06/05 07:37:47;;;;;;;10.00;4.40;;;;;;;19.92;66.41;100753.91;109729;1270;22541;-52
2022/06/05 07:40:19;;;;;;;8.90;3.50;;;;;;;19.98;66.26;100748.48;109780;1270;22409;-54
2022/06/05 07:42:51;;;;;;;11.30;4.40;;;;;;;20.03;66.10;100749.57;109792;1268;22220;-54
2022/06/05 07:45:23;;;;;;;9.30;3.30;;;;;;;20.13;65.50;100747.28;109801;1269;22485;-54
2022/06/05 07:47:55;;;;;;;9.10;3.60;;;;;;;20.21;65.38;100748.85;107328;1270;25341;-52
2022/06/05 07:50:26;;;;;;;9.70;4.30;;;;;;;20.27;65.16;100744.30;107044;1269;22540;-52
2022/06/05 07:55:47;;;;;;;7.40;3.50;;;;;;;20.43;65.22;100738.06;105870;1271;22657;-49
2022/06/05 07:58:19;;;;;;;8.30;3.30;;;;;;;20.51;64.50;100732.33;106057;1270;25298;-49
2022/06/05 08:00:51;;;;;;;7.00;3.60;;;;;;;20.57;64.29;100730.29;106056;1271;24310;-51
2022/06/05 08:03:25;;;;;;;7.60;3.20;;;;;;;20.63;63.92;100730.98;105972;1271;22589;-50
2022/06/05 08:05:57;;;;;;;8.40;4.00;;;;;;;20.70;63.99;100723.55;106117;1271;22706;-50
2022/06/05 08:08:29;;;;;;;8.00;3.60;;;;;;;20.78;63.54;100728.29;106054;1271;22478;-52
2022/06/05 08:11:07;;;;;;;6.70;2.80;;;;;;;20.85;63.64;100731.27;106058;1271;22594;-53
2022/06/05 08:13:39;;;;;;;8.50;3.10;;;;;;;20.91;62.82;100730.05;106127;1271;25397;-51
2022/06/05 08:16:11;;;;;;;9.20;2.80;;;;;;;20.93;62.80;100728.77;105887;1270;25708;-50
2022/06/05 08:18:45;;;;;;;7.80;3.50;;;;;;;21.01;62.67;100727.64;106116;1270;22763;-51
2022/06/05 08:21:18;;;;;;;7.60;2.80;;;;;;;21.08;63.04;100727.44;106169;1270;25342;-52
2022/06/05 08:23:50;;;;;;;7.60;3.40;;;;;;;21.22;62.66;100725.77;105954;1270;23720;-52
2022/06/05 08:26:22;;;;;;;8.60;2.60;;;;;;;21.32;62.36;100721.92;105944;1270;25806;-50
2022/06/05 08:28:53;;;;;;;7.90;2.70;;;;;;;21.41;61.86;100724.15;106279;1270;22610;-49
2022/06/05 08:31:27;;;;;;;8.90;3.00;;;;;;;21.48;61.73;100725.26;106050;1270;24300;-50
2022/06/05 08:34:01;;;;;;;5.60;2.40;;;;;;;21.56;62.00;100720.30;106208;1271;22651;-53
2022/06/05 08:36:34;;;;;;;9.10;3.00;;;;;;;21.62;60.60;100722.55;106045;1270;22535;-52
2022/06/05 08:42:17;;;;;;;7.70;2.40;;;;;;;21.73;60.35;100727.28;106001;1270;22611;-50
2022/06/05 08:44:56;;;;;;;7.30;2.10;;;;;;;21.83;60.00;100728.60;105956;1270;22523;-50
2022/06/05 08:47:30;;;;;;;4.50;1.80;;;;;;;21.89;59.71;100725.34;106042;1271;25080;-53
2022/06/05 08:50:12;;;;;;;7.10;1.90;;;;;;;21.93;59.20;100721.70;106007;1270;24374;-50
2022/06/05 08:52:50;;;;;;;5.20;2.00;;;;;;;21.98;58.87;100719.48;105995;1271;24227;-53
2022/06/05 08:55:29;;;;;;;7.90;2.40;;;;;;;22.01;58.48;100717.70;106034;1270;25320;-53
2022/06/05 08:58:05;;;;;;;10.50;2.20;;;;;;;22.02;57.08;100718.48;106108;1270;24305;-51
2022/06/05 09:00:41;;;;;;;5.20;2.00;;;;;;;21.97;57.75;100714.69;105916;1271;25626;-55
2022/06/05 09:03:21;;;;;;;6.50;2.00;;;;;;;22.05;58.35;100715.40;105834;1270;22544;-50
2022/06/05 09:05:59;;;;;;;6.20;1.80;;;;;;;22.16;57.83;100714.88;106100;1270;22672;-53
2022/06/05 09:08:32;;;;;;;7.00;1.90;;;;;;;22.25;57.33;100716.02;105978;1270;22592;-52
2022/06/05 09:11:07;;;;;;;5.20;2.20;;;;;;;22.34;57.48;100717.09;106046;1270;22573;-52
2022/06/05 09:13:45;;;;;;;7.30;2.20;;;;;;;22.41;56.72;100715.62;105957;1270;22529;-54
2022/06/05 09:16:21;;;;;;;6.20;3.00;;;;;;;22.46;56.28;100713.45;106044;1270;24258;-52
2022/06/05 09:18:54;;;;;;;7.60;2.00;;;;;;;22.45;55.92;100708.81;105769;1270;24308;-51
2022/06/05 09:21:28;;;;;;;6.60;1.60;;;;;;;22.50;55.91;100707.50;106009;1270;24754;-53
2022/06/05 09:24:07;;;;;;;5.80;1.60;;;;;;;22.60;56.09;100707.27;105985;1271;22530;-53
2022/06/05 09:26:44;;;;;;;6.40;1.90;;;;;;;22.72;55.20;100705.64;106160;1270;24293;-50
2022/06/05 09:29:35;;;;;;;4.40;1.70;;;;;;;22.77;55.11;100709.35;105895;1271;22809;-50
2022/06/05 09:32:33;;;;;;;4.70;1.40;;;;;;;22.86;54.64;100708.00;106027;1270;23524;-50
2022/06/05 09:35:19;;;;;;;4.10;1.50;;;;;;;22.92;54.24;100705.63;106181;1270;22548;-53
2022/06/05 09:37:57;;;;;;;5.30;1.80;;;;;;;22.98;54.20;100700.91;105971;1270;25512;-53
2022/06/05 09:40:32;;;;;;;4.90;1.50;;;;;;;23.03;54.04;100696.78;106003;1270;22553;-51
2022/06/05 09:43:23;;;;;;;4.10;1.40;;;;;;;23.11;53.29;100701.10;106153;1270;24415;-50
2022/06/05 09:46:11;;;;;;;5.70;1.60;;;;;;;23.12;53.02;100694.73;106205;1271;22682;-53
2022/06/05 09:48:50;;;;;;;4.40;1.60;;;;;;;23.12;52.15;100686.27;105893;1270;22565;-51
2022/06/05 09:51:23;;;;;;;5.90;1.40;;;;;;;23.16;52.54;100687.64;106042;1271;24360;-53
2022/06/05 09:54:00;;;;;;;10.40;4.60;;;;;;;23.22;52.19;100686.55;106036;1271;22691;-51
2022/06/05 09:59:36;;;;;;;5.10;1.50;;;;;;;23.44;51.99;100692.17;105947;1271;24243;-53
2022/06/05 10:02:10;;;;;;;4.60;1.30;;;;;;;23.55;51.43;100689.64;105919;1271;23932;-51
2022/06/05 10:04:42;;;;;;;6.00;2.00;;;;;;;23.63;50.50;100688.08;105955;1270;22560;-50
2022/06/05 10:07:25;;;;;;;11.20;5.20;;;;;;;23.69;50.49;100687.23;106223;1271;23072;-53
2022/06/05 10:09:57;;;;;;;6.30;1.90;;;;;;;23.74;50.12;100682.25;105852;1270;24429;-53
2022/06/05 10:12:33;;;;;;;7.60;2.00;;;;;;;23.81;49.88;100680.57;106277;1271;22527;-53
2022/06/05 10:15:16;;;;;;;10.10;3.20;;;;;;;23.89;49.61;100674.14;106245;1271;22643;-54
2022/06/05 10:17:53;;;;;;;5.70;1.90;;;;;;;23.95;49.40;100670.48;106117;1271;25374;-51
2022/06/05 10:20:41;;;;;;;5.50;1.80;;;;;;;23.93;49.06;100660.65;106221;1270;22520;-54
2022/06/05 10:23:23;;;;;;;5.00;2.10;;;;;;;23.89;48.99;100652.76;106118;1270;22522;-56
2022/06/05 10:26:03;;;;;;;6.60;2.00;;;;;;;23.95;49.68;100650.58;106138;1271;23607;-53
2022/06/05 10:28:41;;;;;;;5.70;1.70;;;;;;;24.01;49.34;100652.10;106246;1271;26488;-54
2022/06/05 10:31:23;;;;;;;5.10;1.90;;;;;;;24.07;49.26;100658.43;105970;1271;22566;-54
2022/06/05 10:34:05;;;;;;;3.80;1.60;;;;;;;24.15;48.64;100659.11;106014;1271;25371;-53
2022/06/05 10:36:52;;;;;;;6.30;2.50;;;;;;;24.20;48.29;100658.83;105962;1271;22551;-53
2022/06/05 10:39:29;;;;;;;136.80;101.10;;;;;;;24.20;48.06;100654.25;106344;1271;25376;-53
2022/06/05 10:42:17;;;;;;;92.80;65.50;;;;;;;24.23;47.94;100657.81;106081;1271;24422;-56
2022/06/05 10:45:00;;;;;;;101.00;72.00;;;;;;;24.32;48.12;100658.19;105990;1271;22538;-51
2022/06/05 10:47:41;;;;;;;69.40;46.10;;;;;;;24.42;47.71;100659.29;105866;1271;24272;-53
2022/06/05 10:50:18;;;;;;;21.00;10.70;;;;;;;24.43;46.62;100656.77;106070;1271;27614;-52
2022/06/05 10:53:01;;;;;;;67.90;50.20;;;;;;;24.35;46.64;100648.88;105957;1270;25787;-49
2022/06/05 10:55:56;;;;;;;53.40;34.70;;;;;;;24.35;46.91;100645.18;106068;1271;22666;-51
2022/06/05 10:58:34;;;;;;;47.50;29.40;;;;;;;24.36;46.08;100645.69;105808;1271;22557;-54
2022/06/05 11:01:27;;;;;;;69.30;47.50;;;;;;;24.38;46.38;100644.89;105812;1271;23232;-57
2022/06/05 11:04:09;;;;;;;65.50;42.60;;;;;;;24.40;45.85;100643.64;105872;1271;25547;-57
2022/06/05 11:06:50;;;;;;;44.70;27.70;;;;;;;24.38;45.93;100641.09;105802;1270;24438;-51
2022/06/05 11:09:38;;;;;;;112.80;82.10;;;;;;;24.43;46.06;100641.05;105946;1271;26551;-51
2022/06/05 11:15:19;;;;;;;74.70;57.60;;;;;;;24.52;45.74;100621.41;105709;1271;24384;-53
2022/06/05 11:18:06;;;;;;;62.40;36.70;;;;;;;24.59;46.01;100612.11;105862;1271;22570;-53
2022/06/05 11:20:41;;;;;;;67.50;37.80;;;;;;;24.69;46.05;100614.48;105934;1271;25308;-54
2022/06/05 11:23:20;;;;;;;44.20;25.80;;;;;;;24.77;45.63;100611.05;106014;1271;22536;-52
2022/06/05 11:25:59;;;;;;;24.50;11.90;;;;;;;24.83;45.44;100607.31;105812;1271;26549;-53
2022/06/05 11:28:49;;;;;;;15.40;5.10;;;;;;;24.87;45.13;100601.16;105835;1271;22550;-50
2022/06/05 11:31:26;;;;;;;;;;;;;;;24.95;45.17;100598.95;106011;1271;22510;-51
2022/06/05 11:34:02;;;;;;;24.70;12.70;;;;;;;25.02;44.59;100591.93;105867;1271;22556;-50
2022/06/05 11:36:42;;;;;;;36.30;16.40;;;;;;;25.07;44.33;100589.55;105736;1271;22547;-51
2022/06/05 11:39:27;;;;;;;42.90;19.80;;;;;;;25.12;44.53;100588.01;106790;1271;22549;-52
2022/06/05 11:42:20;;;;;;;48.00;26.30;;;;;;;25.17;44.37;100581.95;105958;1271;23581;-57
2022/06/05 11:44:57;;;;;;;26.30;13.30;;;;;;;25.24;43.55;100589.90;106124;1271;22576;-54
2022/06/05 11:47:44;;;;;;;16.70;7.50;;;;;;;25.23;42.63;100588.45;105825;1271;23221;-51
2022/06/05 11:50:26;;;;;;;16.60;7.50;;;;;;;25.23;43.14;100587.51;105906;1271;22523;-54
2022/06/05 11:53:11;;;;;;;10.20;3.70;;;;;;;25.26;43.50;100578.52;105771;1270;22544;-53
2022/06/05 11:55:52;;;;;;;10.40;3.40;;;;;;;25.30;42.86;100573.77;105956;1271;22579;-52
2022/06/05 11:58:33;;;;;;;12.40;4.60;;;;;;;25.31;42.78;100572.67;106482;1261;24281;-62
2022/06/05 12:01:11;;;;;;;10.20;3.50;;;;;;;25.35;43.10;100573.92;105958;1271;23918;-62
2022/06/05 12:03:48;;;;;;;4.60;1.70;;;;;;;25.40;42.61;100561.41;106274;1271;25493;-63